Wetterdaten: Woche 30.08.10 - 05.09.10 (KW35)
Datum Zeit Temp. A. Feuchte A. Luftdruck Regen Wind Richtung Taupunkt Windchill Windben
03.09.2010 02:00 11,1 C 89 % 1016,0 hPa 0,0 l/m 0,0 km/h S 9,4 C 11,1 C 0,0 km/h
03.09.2010 03:00 10,6 C 90 % 1016,2 hPa 0,0 l/m 0,0 km/h S 9,0 C 10,6 C 0,0 km/h
03.09.2010 04:00 10,4 C 90 % 1016,0 hPa 0,0 l/m 0,0 km/h S 8,8 C 10,4 C 0,0 km/h
03.09.2010 05:00 10,1 C 91 % 1016,4 hPa 0,0 l/m 0,0 km/h S 8,7 C 10,1 C 0,0 km/h
03.09.2010 06:00 10,1 C 91 % 1016,2 hPa 0,0 l/m 0,0 km/h S 8,7 C 10,1 C 0,0 km/h
03.09.2010 07:00 10,8 C 91 % 1016,7 hPa 0,0 l/m 0,0 km/h W-SW 9,4 C 10,8 C 0,0 km/h
03.09.2010 08:00 11,8 C 92 % 1017,0 hPa 0,0 l/m 0,0 km/h W-SW 10,5 C 11,8 C 0,0 km/h
03.09.2010 09:00 14,6 C 86 % 1017,1 hPa 0,0 l/m 0,0 km/h W 12,3 C 14,6 C 0,0 km/h
03.09.2010 10:00 16,7 C 77 % 1017,4 hPa 0,0 l/m 1,3 km/h W-NW 12,6 C 16,7 C 0,7 km/h
03.09.2010 11:00 19,9 C 72 % 1017,4 hPa 0,0 l/m 0,0 km/h SW 14,7 C 19,9 C 0,0 km/h
03.09.2010 12:00 23,1 C 60 % 1016,9 hPa 0,0 l/m 1,9 km/h W-SW 14,9 C 23,1 C 1,1 km/h
03.09.2010 13:00 24,2 C 59 % 1016,2 hPa 0,0 l/m 0,0 km/h W 15,7 C 24,2 C 0,0 km/h
03.09.2010 14:00 24,9 C 57 % 1015,7 hPa 0,0 l/m 5,2 km/h W-NW 15,8 C 24,9 C 2,9 km/h
03.09.2010 15:00 27,6 C 49 % 1015,2 hPa 0,0 l/m 8,4 km/h NW 15,9 C 27,3 C 4,7 km/h
03.09.2010 16:00 30,1 C 41 % 1015,0 hPa 0,0 l/m 3,9 km/h NO 15,4 C 30,1 C 2,2 km/h
03.09.2010 17:00 29,4 C 40 % 1015,1 hPa 0,0 l/m 3,9 km/h N-NW 14,4 C 29,4 C 2,2 km/h
03.09.2010 18:00 29,2 C 40 % 1014,9 hPa 0,0 l/m 0,0 km/h N-NO 14,2 C 29,2 C 0,0 km/h
03.09.2010 19:00 24,8 C 51 % 1015,0 hPa 0,0 l/m 0,0 km/h NW 14,0 C 24,8 C 0,0 km/h
03.09.2010 20:00 17,8 C 71 % 1015,4 hPa 0,0 l/m 0,0 km/h NO 12,5 C 17,8 C 0,0 km/h
03.09.2010 21:00 14,9 C 82 % 1015,9 hPa 0,0 l/m 0,0 km/h O 11,9 C 14,9 C 0,0 km/h
03.09.2010 22:00 13,4 C 86 % 1016,1 hPa 0,0 l/m 0,0 km/h O-SO 11,1 C 13,4 C 0,0 km/h
03.09.2010 23:00 13,1 C 88 % 1016,2 hPa 0,0 l/m 0,0 km/h O 11,2 C 13,1 C 0,0 km/h
04.09.2010 00:00 12,7 C 89 % 1016,2 hPa 0,0 l/m 0,0 km/h O 10,9 C 12,7 C 0,0 km/h
04.09.2010 01:00 12,0 C 89 % 1016,1 hPa 0,0 l/m 0,0 km/h O 10,2 C 12,0 C 0,0 km/h
04.09.2010 02:00 12,5 C 90 % 1015,8 hPa 0,0 l/m 0,0 km/h O 10,9 C 12,5 C 0,0 km/h
04.09.2010 03:00 12,3 C 91 % 1015,7 hPa 0,0 l/m 0,0 km/h O 10,9 C 12,3 C 0,0 km/h
04.09.2010 04:00 11,8 C 91 % 1015,7 hPa 0,0 l/m 0,0 km/h O-NO 10,4 C 11,8 C 0,0 km/h
04.09.2010 05:00 11,1 C 91 % 1015,8 hPa 0,0 l/m 0,0 km/h O-SO 9,7 C 11,1 C 0,0 km/h
04.09.2010 06:00 10,6 C 91 % 1015,8 hPa 0,0 l/m 0,0 km/h O-SO 9,2 C 10,6 C 0,0 km/h
04.09.2010 07:00 11,6 C 92 % 1016,3 hPa 0,0 l/m 0,0 km/h SO 10,3 C 11,6 C 0,0 km/h
04.09.2010 08:00 12,9 C 92 % 1016,7 hPa 0,0 l/m 0,0 km/h W-SW 11,6 C 12,9 C 0,0 km/h
04.09.2010 09:00 16,1 C 87 % 1017,1 hPa 0,0 l/m 0,0 km/h W-SW 13,9 C 16,1 C 0,0 km/h
04.09.2010 10:00 21,5 C 67 % 1017,3 hPa 0,0 l/m 1,9 km/h W 15,1 C 21,5 C 1,1 km/h
04.09.2010 11:00 23,7 C 60 % 1017,2 hPa 0,0 l/m 7,8 km/h W 15,5 C 23,3 C 4,3 km/h
04.09.2010 12:00 23,9 C 58 % 1016,9 hPa 0,0 l/m 2,6 km/h W-NW 15,1 C 23,9 C 1,4 km/h
04.09.2010 13:00 24,5 C 54 % 1016,7 hPa 0,0 l/m 3,2 km/h W 14,6 C 24,5 C 1,8 km/h
04.09.2010 14:00 24,9 C 48 % 1016,4 hPa 0,0 l/m 5,8 km/h W-NW 13,1 C 24,9 C 3,2 km/h
04.09.2010 15:00 27,1 C 42 % 1016,2 hPa 0,0 l/m 0,0 km/h NO 13,1 C 27,1 C 0,0 km/h
04.09.2010 16:00 29,7 C 34 % 1016,2 hPa 0,0 l/m 8,4 km/h N-NW 12,1 C 29,5 C 4,7 km/h
04.09.2010 17:00 29,9 C 33 % 1016,3 hPa 0,0 l/m 1,3 km/h N-NO 11,9 C 29,9 C 0,7 km/h
04.09.2010 18:00 28,5 C 34 % 1016,3 hPa 0,0 l/m 0,0 km/h N 11,1 C 28,5 C 0,0 km/h
04.09.2010 19:00 21,8 C 48 % 1016,5 hPa 0,0 l/m 0,0 km/h N-NO 10,3 C 21,8 C 0,0 km/h
04.09.2010 20:00 14,7 C 73 % 1016,9 hPa 0,0 l/m 0,0 km/h O-NO 9,9 C 14,7 C 0,0 km/h
04.09.2010 21:00 13,4 C 79 % 1017,4 hPa 0,0 l/m 0,0 km/h NO 9,8 C 13,4 C 0,0 km/h
04.09.2010 22:00 12,6 C 83 % 1017,6 hPa 0,0 l/m 0,0 km/h SO 9,8 C 12,6 C 0,0 km/h
04.09.2010 23:00 12,5 C 84 % 1017,4 hPa 0,0 l/m 0,0 km/h SO 9,9 C 12,5 C 0,0 km/h
05.09.2010 00:00 12,2 C 84 % 1017,1 hPa 0,0 l/m 0,0 km/h SO 9,6 C 12,2 C 0,0 km/h
05.09.2010 01:00 11,8 C 87 % 1017,2 hPa 0,0 l/m 0,0 km/h NW 9,7 C 11,8 C 0,0 km/h
05.09.2010 02:00 10,1 C 88 % 1016,8 hPa 0,0 l/m 0,0 km/h W-NW 8,2 C 10,1 C 0,0 km/h
05.09.2010 03:00 9,3 C 89 % 1016,9 hPa 0,0 l/m 0,0 km/h W-NW 7,6 C 9,3 C 0,0 km/h
05.09.2010 04:00 8,6 C 90 % 1016,8 hPa 0,0 l/m 0,0 km/h W 7,1 C 8,6 C 0,0 km/h
05.09.2010 05:00 8,2 C 90 % 1016,7 hPa 0,0 l/m 0,0 km/h SW 6,7 C 8,2 C 0,0 km/h
05.09.2010 06:00 9,4 C 91 % 1017,5 hPa 0,0 l/m 0,0 km/h S 8,0 C 9,4 C 0,0 km/h
05.09.2010 07:00 9,8 C 91 % 1017,6 hPa 0,0 l/m 0,0 km/h S-SO 8,4 C 9,8 C 0,0 km/h
05.09.2010 08:00 10,8 C 91 % 1017,7 hPa 0,0 l/m 0,0 km/h W-NW 9,4 C 10,8 C 0,0 km/h
05.09.2010 09:00 12,9 C 87 % 1017,6 hPa 0,0 l/m 0,0 km/h W 10,8 C 12,9 C 0,0 km/h
05.09.2010 10:00 13,2 C 86 % 1017,9 hPa 0,0 l/m 0,0 km/h W 10,9 C 13,2 C 0,0 km/h
05.09.2010 11:00 14,8 C 81 % 1017,7 hPa 0,0 l/m 3,2 km/h S-SW 11,6 C 14,8 C 1,8 km/h
05.09.2010 12:00 20,2 C 67 % 1017,3 hPa 0,0 l/m 3,2 km/h SW 13,9 C 20,2 C 1,8 km/h
05.09.2010 13:00 21,9 C 62 % 1017,0 hPa 0,0 l/m 0,0 km/h NW 14,3 C 21,9 C 0,0 km/h
05.09.2010 14:00 23,4 C 54 % 1016,4 hPa 0,0 l/m 4,5 km/h W-NW 13,6 C 23,4 C 2,5 km/h
05.09.2010 15:00 27,1 C 47 % 1015,8 hPa 0,0 l/m 3,9 km/h NW 14,8 C 27,1 C 2,2 km/h
05.09.2010 16:00 26,7 C 44 % 1015,8 hPa 0,0 l/m 1,3 km/h N 13,4 C 26,7 C 0,7 km/h
05.09.2010 17:00 27,5 C 41 % 1015,6 hPa 0,0 l/m 0,0 km/h N 13,1 C 27,5 C 0,0 km/h
05.09.2010 18:00 23,4 C 45 % 1015,5 hPa 0,0 l/m 0,0 km/h N 10,8 C 23,4 C 0,0 km/h
05.09.2010 19:00 19,5 C 60 % 1015,6 hPa 0,0 l/m 0,0 km/h O-SO 11,5 C 19,5 C 0,0 km/h
05.09.2010 20:00 15,9 C 72 % 1016,0 hPa 0,0 l/m 0,0 km/h O-NO 10,9 C 15,9 C 0,0 km/h
05.09.2010 21:00 14,4 C 79 % 1016,3 hPa 0,0 l/m 0,0 km/h N-NO 10,8 C 14,4 C 0,0 km/h
05.09.2010 22:00 13,6 C 82 % 1016,0 hPa 0,0 l/m 0,0 km/h O-SO 10,6 C 13,6 C 0,0 km/h
05.09.2010 23:00 12,1 C 86 % 1015,9 hPa 0,0 l/m 0,0 km/h O 9,8 C 12,1 C 0,0 km/h
Min-Datum _ 05.09.10 04.09.10 03.09.10 - 03.09.10 - 05.09.10 05.09.10 03.09.10
_ Min-Zeit 05:30 17:30 18:30 - 02:30 - 05:30 05:30 02:30
Minimum _ 8,2 C 33 % 1014,9 hPa - 0,0 km/h - 6,7 C 8,2 C 0,0 km/h
Max-Datum _ 03.09.10 03.09.10 05.09.10 03.09.10 03.09.10 - 03.09.10 03.09.10 03.09.10
_ Max-Zeit 16:30 08:30 10:30 02:30 15:30 - 15:30 16:30 15:30
Maximum _ 30,1 C 92 % 1017,9 hPa 0,0 l/m 8,4 km/h
NW
- 15,9 C 30,1 C 4,7 km/h
NW
Durchschnitt _ 17,3 C 73 % 1016,4 hPa #0,0 l/m 1,0 km/h W 11,5 C 17,2 C 0,6 km/h